Camp Pohakuloa, Hawaii
Current Conditions -  °F | °C
As of 8:56 AM on Thursday 23 Oct 2014 (Local Time) from PHSF Reporting Station
Clear Clear  
Wind Chill: 64°   Ceiling: Unl
Heat Index: 64°   Visibility: 10mi
Dew Point: 55°   Wind: 2mph
Humidity: 72%   Direction: 230°SW
Pressure: 30.39"   Gusts: NA
Location:  19.76°N, 155.56°W
Report Text: PHSF 231856Z AUTO 23002KT 10SM CLR 18/13 A3039 RMK AO2 SLP170 T01800129 $
Loading
Personal Weather Stations






























Interactive Weather Map
Tropical Storm Tracking
New forecast layout! Learn more

10-Day Weather Forecast

Advertisements
Track Severe Weather on mobile